Time,TemperatureF,DewpointF,PressureIn,WindDirection,WindDirectionDegrees,WindSpeedMPH,WindSpeedGustMPH,Humidity,HourlyPrecipIn,Conditions,Clouds,dailyrainin,SoftwareType,DateUTC
2013-08-04 00:02:00,78.0,75.0,30.02,SSE,155,0.0,0.0,91,0.00,,,0.00,,2013-08-04 05:02:00,
2013-08-04 00:12:00,78.0,75.0,30.02,SSE,155,0.0,0.0,91,0.00,,,0.00,,2013-08-04 05:12:00,
2013-08-04 00:22:00,78.0,75.0,30.02,SSE,155,0.0,0.0,91,0.00,,,0.00,,2013-08-04 05:22:00,
2013-08-04 00:32:00,79.0,76.0,30.02,SSE,155,0.0,0.0,91,0.00,,,0.00,,2013-08-04 05:32:00,
2013-08-04 00:42:00,79.0,76.0,30.02,SSE,155,0.0,0.0,91,0.00,,,0.00,,2013-08-04 05:42:00,
2013-08-04 00:52:00,79.0,76.0,30.02,SSE,155,0.0,0.0,91,0.00,,,0.00,,2013-08-04 05:52:00,
2013-08-04 01:02:00,77.0,74.0,30.02,SSE,155,0.0,0.0,92,0.00,,,0.00,,2013-08-04 06:02:00,
2013-08-04 01:12:00,77.0,74.0,30.02,SSE,155,0.0,0.0,92,0.00,,,0.00,,2013-08-04 06:12:00,
2013-08-04 01:22:00,77.0,75.0,30.02,SSE,155,0.0,0.0,93,0.00,,,0.00,,2013-08-04 06:22:00,
2013-08-04 01:32:00,77.0,75.0,30.02,SSE,155,0.0,0.0,93,0.00,,,0.00,,2013-08-04 06:32:00,
2013-08-04 01:43:00,77.0,75.0,30.02,SSE,155,0.0,0.0,93,0.00,,,0.00,,2013-08-04 06:43:00,
2013-08-04 01:52:00,77.0,75.0,30.02,SSE,155,0.0,0.0,93,0.00,,,0.00,,2013-08-04 06:52:00,
2013-08-04 02:02:00,77.0,75.0,30.02,SSE,155,0.0,0.0,93,0.00,,,0.00,,2013-08-04 07:02:00,
2013-08-04 05:02:00,75.0,73.0,30.00,ESE,107,0.0,1.0,95,0.00,,,0.00,,2013-08-04 10:02:00,
2013-08-04 05:12:00,75.0,73.0,30.00,ESE,107,0.0,0.0,95,0.00,,,0.00,,2013-08-04 10:12:00,
2013-08-04 05:22:00,75.0,73.0,30.01,ESE,107,0.0,0.0,95,0.00,,,0.00,,2013-08-04 10:22:00,
2013-08-04 05:32:00,75.0,73.0,30.01,ESE,107,0.0,0.0,95,0.00,,,0.00,,2013-08-04 10:32:00,
2013-08-04 05:42:00,75.0,74.0,30.02,North,5,0.0,3.0,96,0.00,,,0.00,,2013-08-04 10:42:00,
2013-08-04 05:53:00,75.0,73.0,30.02,North,5,0.0,0.0,95,0.00,,,0.00,,2013-08-04 10:53:00,
2013-08-04 06:02:00,75.0,73.0,30.02,North,5,0.0,0.0,95,0.00,,,0.00,,2013-08-04 11:02:00,
2013-08-04 06:12:00,75.0,74.0,30.03,North,5,0.0,0.0,96,0.00,,,0.00,,2013-08-04 11:12:00,
2013-08-04 06:22:00,74.0,73.0,30.03,North,5,0.0,0.0,96,0.00,,,0.00,,2013-08-04 11:22:00,
2013-08-04 06:32:00,74.0,73.0,30.03,North,5,0.0,0.0,96,0.00,,,0.00,,2013-08-04 11:32:00,
2013-08-04 06:42:00,74.0,73.0,30.04,North,5,0.0,0.0,96,0.00,,,0.00,,2013-08-04 11:42:00,
2013-08-04 06:53:00,74.0,73.0,30.05,North,5,0.0,0.0,96,0.00,,,0.00,,2013-08-04 11:53:00,
2013-08-04 07:02:00,74.0,73.0,30.05,North,5,0.0,0.0,96,0.00,,,0.00,,2013-08-04 12:02:00,
2013-08-04 07:12:00,74.0,73.0,30.05,North,5,0.0,0.0,96,0.00,,,0.00,,2013-08-04 12:12:00,
2013-08-04 07:22:00,75.0,74.0,30.05,North,5,0.0,0.0,96,0.00,,,0.00,,2013-08-04 12:22:00,
2013-08-04 07:32:00,75.0,74.0,30.05,North,5,0.0,0.0,96,0.00,,,0.00,,2013-08-04 12:32:00,
2013-08-04 07:43:00,76.0,75.0,30.06,North,5,0.0,0.0,96,0.00,,,0.00,,2013-08-04 12:43:00,
2013-08-04 07:53:00,77.0,76.0,30.06,SW,216,1.0,2.0,96,0.00,,,0.00,,2013-08-04 12:53:00,
2013-08-04 08:02:00,77.0,76.0,30.06,SW,216,1.0,2.0,96,0.00,,,0.00,,2013-08-04 13:02:00,
2013-08-04 08:12:00,78.0,76.0,30.06,South,183,0.0,2.0,94,0.00,,,0.00,,2013-08-04 13:12:00,
2013-08-04 08:22:00,79.0,76.0,30.06,South,184,0.0,2.0,92,0.00,,,0.00,,2013-08-04 13:22:00,
2013-08-04 08:32:00,79.0,76.0,30.06,South,184,0.0,2.0,92,0.00,,,0.00,,2013-08-04 13:32:00,
2013-08-04 08:43:00,80.0,77.0,30.06,South,176,0.0,2.0,90,0.00,,,0.00,,2013-08-04 13:43:00,
2013-08-04 08:52:00,82.0,77.0,30.06,SSW,202,0.0,3.0,86,0.00,,,0.00,,2013-08-04 13:52:00,
2013-08-04 09:02:00,82.0,77.0,30.06,SSW,202,0.0,3.0,86,0.00,,,0.00,,2013-08-04 14:02:00,
2013-08-04 09:12:00,84.0,78.0,30.06,West,269,2.0,5.0,82,0.00,,,0.00,,2013-08-04 14:12:00,
2013-08-04 09:22:00,85.0,78.0,30.06,NW,308,3.0,6.0,79,0.00,,,0.00,,2013-08-04 14:22:00,
2013-08-04 09:32:00,85.0,78.0,30.06,NW,308,3.0,6.0,79,0.00,,,0.00,,2013-08-04 14:32:00,
2013-08-04 09:43:00,86.0,79.0,30.06,WNW,301,2.0,5.0,79,0.00,,,0.00,,2013-08-04 14:43:00,
2013-08-04 09:52:00,87.0,79.0,30.06,WNW,302,4.0,7.0,77,0.00,,,0.00,,2013-08-04 14:52:00,
2013-08-04 10:02:00,87.0,79.0,30.06,WNW,302,4.0,7.0,77,0.00,,,0.00,,2013-08-04 15:02:00,
2013-08-04 10:12:00,87.0,78.0,30.07,NNW,344,4.0,7.0,76,0.00,,,0.00,,2013-08-04 15:12:00,
2013-08-04 10:22:00,88.0,79.0,30.07,NW,323,3.0,7.0,74,0.00,,,0.00,,2013-08-04 15:22:00,
2013-08-04 10:32:00,88.0,79.0,30.07,NW,323,3.0,7.0,74,0.00,,,0.00,,2013-08-04 15:32:00,
2013-08-04 10:43:00,89.0,78.0,30.07,NW,313,3.0,8.0,71,0.00,,,0.00,,2013-08-04 15:43:00,
2013-08-04 10:53:00,90.0,79.0,30.07,North,349,2.0,7.0,70,0.00,,,0.00,,2013-08-04 15:53:00,
2013-08-04 11:02:00,90.0,79.0,30.07,North,349,2.0,7.0,70,0.00,,,0.00,,2013-08-04 16:02:00,
2013-08-04 11:12:00,91.0,78.0,30.07,NNW,336,3.0,8.0,67,0.00,,,0.00,,2013-08-04 16:12:00,
2013-08-04 11:22:00,90.0,78.0,30.07,North,5,4.0,9.0,67,0.00,,,0.00,,2013-08-04 16:22:00,
2013-08-04 11:32:00,90.0,78.0,30.07,North,5,4.0,9.0,67,0.00,,,0.00,,2013-08-04 16:32:00,
2013-08-04 11:42:00,91.0,77.0,30.06,NW,320,4.0,8.0,64,0.00,,,0.00,,2013-08-04 16:42:00,
2013-08-04 11:52:00,91.0,78.0,30.06,NW,315,4.0,9.0,65,0.00,,,0.00,,2013-08-04 16:52:00,
2013-08-04 12:02:00,91.0,78.0,30.06,NW,315,4.0,9.0,65,0.00,,,0.00,,2013-08-04 17:02:00,
2013-08-04 12:12:00,92.0,77.0,30.05,WNW,291,3.0,8.0,62,0.00,,,0.00,,2013-08-04 17:12:00,
2013-08-04 12:22:00,92.0,77.0,30.05,NNW,336,3.0,7.0,61,0.00,,,0.00,,2013-08-04 17:22:00,
2013-08-04 12:32:00,92.0,77.0,30.05,NNW,336,3.0,7.0,61,0.00,,,0.00,,2013-08-04 17:32:00,
2013-08-04 12:43:00,92.0,76.0,30.05,North,351,2.0,8.0,59,0.00,,,0.00,,2013-08-04 17:43:00,
2013-08-04 12:53:00,91.0,76.0,30.04,NW,320,3.0,9.0,62,0.00,,,0.00,,2013-08-04 17:53:00,
2013-08-04 13:02:00,91.0,76.0,30.04,NW,320,3.0,9.0,62,0.00,,,0.00,,2013-08-04 18:02:00,
2013-08-04 13:12:00,92.0,75.0,30.03,NW,315,3.0,8.0,58,0.00,,,0.00,,2013-08-04 18:12:00,
2013-08-04 13:23:00,93.0,76.0,30.03,NW,312,1.0,6.0,58,0.00,,,0.00,,2013-08-04 18:23:00,
2013-08-04 13:33:00,93.0,76.0,30.03,NW,312,1.0,6.0,58,0.00,,,0.00,,2013-08-04 18:33:00,
2013-08-04 13:43:00,93.0,75.0,30.02,NNW,346,4.0,8.0,57,0.00,,,0.00,,2013-08-04 18:43:00,
2013-08-04 13:52:00,94.0,77.0,30.02,WNW,301,2.0,6.0,58,0.00,,,0.00,,2013-08-04 18:52:00,
2013-08-04 14:02:00,94.0,77.0,30.02,WNW,301,2.0,6.0,58,0.00,,,0.00,,2013-08-04 19:02:00,
2013-08-04 14:12:00,94.0,75.0,30.01,North,11,1.0,7.0,55,0.00,,,0.00,,2013-08-04 19:12:00,
2013-08-04 14:22:00,94.0,75.0,30.01,NNW,345,4.0,7.0,55,0.00,,,0.00,,2013-08-04 19:22:00,
2013-08-04 14:32:00,94.0,75.0,30.01,NNW,345,4.0,7.0,55,0.00,,,0.00,,2013-08-04 19:32:00,
2013-08-04 14:43:00,94.0,75.0,30.00,WNW,292,1.0,6.0,54,0.00,,,0.00,,2013-08-04 19:43:00,
2013-08-04 14:52:00,93.0,75.0,29.99,WNW,301,1.0,5.0,56,0.00,,,0.00,,2013-08-04 19:52:00,
2013-08-04 15:02:00,93.0,75.0,29.99,WNW,301,1.0,5.0,56,0.00,,,0.00,,2013-08-04 20:02:00,
2013-08-04 15:12:00,94.0,75.0,29.98,West,260,0.0,3.0,55,0.00,,,0.00,,2013-08-04 20:12:00,
2013-08-04 15:22:00,93.0,74.0,29.98,WNW,294,2.0,5.0,55,0.00,,,0.00,,2013-08-04 20:22:00,
2013-08-04 15:33:00,93.0,74.0,29.98,WNW,294,2.0,5.0,55,0.00,,,0.00,,2013-08-04 20:33:00,
2013-08-04 15:43:00,93.0,74.0,29.98,NW,305,1.0,5.0,54,0.00,,,0.00,,2013-08-04 20:43:00,
2013-08-04 15:53:00,93.0,74.0,29.98,NNW,342,1.0,5.0,54,0.00,,,0.00,,2013-08-04 20:53:00,
2013-08-04 16:02:00,93.0,74.0,29.98,NNW,342,1.0,5.0,54,0.00,,,0.00,,2013-08-04 21:02:00,
2013-08-04 16:12:00,93.0,74.0,29.98,NW,306,0.0,4.0,54,0.00,,,0.00,,2013-08-04 21:12:00,
2013-08-04 16:22:00,95.0,74.0,29.97,North,350,2.0,6.0,51,0.00,,,0.00,,2013-08-04 21:22:00,
2013-08-04 16:32:00,95.0,74.0,29.97,North,350,2.0,6.0,51,0.00,,,0.00,,2013-08-04 21:32:00,
2013-08-04 16:43:00,96.0,76.0,29.97,North,5,2.0,5.0,53,0.00,,,0.00,,2013-08-04 21:43:00,
2013-08-04 16:53:00,94.0,75.0,29.97,NE,49,4.0,8.0,55,0.00,,,0.00,,2013-08-04 21:53:00,
2013-08-04 17:02:00,94.0,75.0,29.97,NE,49,4.0,8.0,55,0.00,,,0.00,,2013-08-04 22:02:00,
2013-08-04 17:12:00,92.0,77.0,29.97,NE,53,5.0,10.0,61,0.00,,,0.00,,2013-08-04 22:12:00,
2013-08-04 17:22:00,91.0,77.0,29.96,NNE,32,4.0,10.0,63,0.00,,,0.00,,2013-08-04 22:22:00,
2013-08-04 17:32:00,91.0,77.0,29.96,NNE,32,4.0,10.0,63,0.00,,,0.00,,2013-08-04 22:32:00,
2013-08-04 17:43:00,92.0,77.0,29.97,NE,44,4.0,11.0,61,0.00,,,0.00,,2013-08-04 22:43:00,
2013-08-04 17:53:00,90.0,76.0,29.96,NNE,12,4.0,7.0,64,0.00,,,0.00,,2013-08-04 22:53:00,
2013-08-04 18:02:00,90.0,76.0,29.96,NNE,12,4.0,7.0,64,0.00,,,0.00,,2013-08-04 23:02:00,
2013-08-04 18:12:00,89.0,76.0,29.96,NE,43,3.0,7.0,66,0.00,,,0.00,,2013-08-04 23:12:00,
2013-08-04 18:22:00,89.0,76.0,29.96,NE,44,2.0,7.0,66,0.00,,,0.00,,2013-08-04 23:22:00,
2013-08-04 18:32:00,89.0,76.0,29.96,NE,44,2.0,7.0,66,0.00,,,0.00,,2013-08-04 23:32:00,
2013-08-04 18:43:00,90.0,76.0,29.96,NE,53,3.0,7.0,63,0.00,,,0.00,,2013-08-04 23:43:00,
2013-08-04 18:53:00,91.0,75.0,29.96,NE,39,5.0,8.0,60,0.00,,,0.00,,2013-08-04 23:53:00,
2013-08-04 19:02:00,91.0,75.0,29.96,NE,39,5.0,8.0,60,0.00,,,0.00,,2013-08-05 00:02:00,
2013-08-04 19:12:00,91.0,76.0,29.96,NE,49,3.0,6.0,61,0.00,,,0.00,,2013-08-05 00:12:00,
2013-08-04 19:22:00,90.0,75.0,29.96,ENE,57,3.0,6.0,61,0.00,,,0.00,,2013-08-05 00:22:00,
2013-08-04 19:33:00,90.0,75.0,29.96,ENE,57,3.0,6.0,61,0.00,,,0.00,,2013-08-05 00:33:00,
2013-08-04 19:42:00,90.0,76.0,29.97,NNE,32,4.0,7.0,63,0.00,,,0.00,,2013-08-05 00:42:00,
2013-08-04 19:52:00,89.0,75.0,29.97,NE,44,1.0,5.0,64,0.00,,,0.00,,2013-08-05 00:52:00,
2013-08-04 20:02:00,89.0,75.0,29.97,NE,44,1.0,5.0,64,0.00,,,0.00,,2013-08-05 01:02:00,
2013-08-04 20:12:00,88.0,76.0,29.97,NE,47,0.0,2.0,67,0.00,,,0.00,,2013-08-05 01:12:00,
2013-08-04 20:22:00,87.0,75.0,29.98,NE,47,0.0,1.0,68,0.00,,,0.00,,2013-08-05 01:22:00,
2013-08-04 20:33:00,87.0,75.0,29.98,NE,47,0.0,1.0,68,0.00,,,0.00,,2013-08-05 01:33:00,
2013-08-04 20:42:00,86.0,75.0,29.98,NE,47,0.0,2.0,71,0.00,,,0.00,,2013-08-05 01:42:00,
2013-08-04 20:52:00,84.0,75.0,29.98,NE,47,0.0,2.0,74,0.00,,,0.00,,2013-08-05 01:52:00,
2013-08-04 21:02:00,84.0,75.0,29.98,NE,47,0.0,2.0,74,0.00,,,0.00,,2013-08-05 02:02:00,
2013-08-04 21:12:00,84.0,76.0,29.98,NE,47,0.0,2.0,76,0.00,,,0.00,,2013-08-05 02:12:00,
2013-08-04 21:22:00,83.0,76.0,29.99,NE,47,0.0,2.0,79,0.00,,,0.00,,2013-08-05 02:22:00,
2013-08-04 21:33:00,83.0,76.0,29.99,NE,47,0.0,2.0,79,0.00,,,0.00,,2013-08-05 02:33:00,
2013-08-04 21:43:00,82.0,75.0,29.99,NE,47,0.0,2.0,79,0.00,,,0.00,,2013-08-05 02:43:00,
2013-08-04 21:53:00,82.0,75.0,30.00,NE,52,0.0,3.0,80,0.00,,,0.00,,2013-08-05 02:53:00,
2013-08-04 22:02:00,82.0,75.0,30.00,NE,52,0.0,3.0,80,0.00,,,0.00,,2013-08-05 03:02:00,
2013-08-04 22:12:00,82.0,76.0,30.01,NE,53,1.0,3.0,81,0.00,,,0.00,,2013-08-05 03:12:00,
2013-08-04 22:22:00,82.0,76.0,30.01,ENE,62,1.0,2.0,82,0.00,,,0.00,,2013-08-05 03:22:00,
2013-08-04 22:32:00,82.0,76.0,30.01,ENE,62,1.0,2.0,82,0.00,,,0.00,,2013-08-05 03:32:00,
2013-08-04 22:42:00,82.0,76.0,30.01,ENE,62,1.0,2.0,82,0.00,,,0.00,,2013-08-05 03:42:00,
2013-08-04 22:53:00,82.0,76.0,30.01,ENE,62,1.0,3.0,83,0.00,,,0.00,,2013-08-05 03:53:00,
2013-08-04 23:02:00,82.0,76.0,30.01,ENE,62,1.0,3.0,83,0.00,,,0.00,,2013-08-05 04:02:00,
2013-08-04 23:12:00,81.0,76.0,30.01,ENE,62,0.0,2.0,84,0.00,,,0.00,,2013-08-05 04:12:00,
2013-08-04 23:22:00,81.0,76.0,30.01,ENE,62,0.0,2.0,84,0.00,,,0.00,,2013-08-05 04:22:00,
2013-08-04 23:32:00,81.0,76.0,30.01,ENE,61,0.0,2.0,84,0.00,,,0.00,,2013-08-05 04:32:00,
2013-08-04 23:43:00,81.0,76.0,30.00,ENE,61,0.0,0.0,84,0.00,,,0.00,,2013-08-05 04:43:00,
2013-08-04 23:52:00,80.0,75.0,30.01,ENE,61,0.0,2.0,85,0.00,,,0.00,,2013-08-05 04:52:00,